Track Трегубец Александра

Time Latitude Longitude Accuracy (66% radius in meters) Altitude (meters) Speed (km/hour) Bearing (degrees) Battery (%) GPS flag
11:17:52 60.370976 29.556383 16 57 0 298.40005493164 27 0 delete
11:17:40 60.370976 29.556383 16 57 0 298.40005493164 27 0 delete
11:17:26 60.370976 29.556383 16 57 0 298.40005493164 27 0 delete
11:17:14 60.370976 29.556383 16 57 0 298.40005493164 27 0 delete
11:17:01 60.370976 29.556383 16 57 0 298.40005493164 27 0 delete
11:16:48 60.370976 29.556383 16 57 0 298.40005493164 27 0 delete
11:16:36 60.370976 29.556383 16 57 0 298.40005493164 27 0 delete
11:16:23 60.370976 29.556383 16 57 0 298.40005493164 27 0 delete
11:16:10 60.370976 29.556383 16 57 0 298.40005493164 27 0 delete
11:15:58 60.370976 29.556383 16 57 0 298.40005493164 27 0 delete
11:15:45 60.370976 29.556383 16 57 0 298.40005493164 27 0 delete
11:15:31 60.370976 29.556383 16 57 0 298.40005493164 27 0 delete
11:15:18 60.370976 29.556383 16 57 0 298.40005493164 27 0 delete
11:15:05 60.370976 29.556383 16 57 0 298.40005493164 27 0 delete
11:14:52 60.370976 29.556383 16 57 0 298.40005493164 27 0 delete
11:14:39 60.370976 29.556383 16 57 0 298.40005493164 27 0 delete
10:14:16 60.370982 29.556412 24 72 0 298.40005493164 27 1 delete
10:14:11 60.370982 29.556412 32 58 0 298.40005493164 27 1 delete
10:14:01 60.370976 29.556383 16 57 0 298.40005493164 27 1 delete
10:13:58 60.370969 29.556357 16 63 0 298.40005493164 27 1 delete
10:13:52 60.370956 29.556302 16 64 0 298.40005493164 27 1 delete
10:13:45 60.370952 29.556262 16 61 0 298.40005493164 27 1 delete
10:13:30 60.370962 29.556272 16 65 0 298.40005493164 27 1 delete
10:13:16 60.370969 29.556255 12 64 0 298.40005493164 27 1 delete
10:13:03 60.370983 29.556216 12 65 0 298.40005493164 27 1 delete
10:12:56 60.370987 29.556233 12 67 0 298.40005493164 27 1 delete
10:12:50 60.370989 29.556272 12 63 0 298.40005493164 27 1 delete
10:12:36 60.370977 29.556323 12 71 0 342.65374755859 27 1 delete
10:12:23 60.370964 29.556312 6 73 0.4586338698864 128.14669799805 27 1 delete
10:12:09 60.370955 29.556317 6 68 0.32653939723969 197.50636291504 27 1 delete
10:11:58 60.370984 29.556332 12 63 0 333.62924194336 27 1 delete
10:11:56 60.370980 29.556334 8 66 0.05211865156889 340.20056152344 27 1 delete
10:11:44 60.370960 29.556254 4 81 0 75.128028869629 27 1 delete
10:11:43 60.370956 29.556251 6 80 0 75.128028869629 27 1 delete
10:11:29 60.370898 29.556204 6 70 0 277.33453369141 27 1 delete
10:11:21 60.370915 29.556223 6 70 0 277.33453369141 27 1 delete
10:11:17 60.370942 29.556296 12 73 0 277.33453369141 27 1 delete
10:11:12 60.370984 29.556352 8 79 0 277.33453369141 27 1 delete
10:11:04 60.371014 29.556401 8 81 0 28.819932937622 27 1 delete
10:10:51 60.371001 29.556494 6 75 0 28.819932937622 27 1 delete
10:10:38 60.371031 29.556471 8 79 0 28.819932937622 27 1 delete
10:10:25 60.371034 29.556419 4 87 0 28.819932937622 27 1 delete
10:10:13 60.371003 29.556451 6 82 0 28.819932937622 27 1 delete
10:10:12 60.371001 29.556440 6 82 0 28.819932937622 27 1 delete
10:10:00 60.371008 29.556348 4 71 0.35788509249687 28.819932937622 27 1 delete
10:09:47 60.370997 29.556360 6 72 0 252.94866943359 27 1 delete
10:09:34 60.371015 29.556346 8 72 0 292.21408081055 27 1 delete
10:09:21 60.371028 29.556343 6 87 0 344.65496826172 27 1 delete
10:09:09 60.370985 29.556338 6 85 0 344.65496826172 27 1 delete
10:08:56 60.370976 29.556344 6 78 0 344.65496826172 27 1 delete